Sharon, North Dakota
Current Conditions -  °F | °C
As of 3:58 PM on Saturday 20 Dec 2014 (Local Time) from KRDR Reporting Station
Haze Haze  
Wind Chill: 19°   Ceiling: 300
Heat Index: 28°   Visibility: 3mi
Dew Point: 28°   Wind: 10mph
Humidity: 100%   Direction: 180°S
Pressure: 29.93"   Gusts: NA
Location:  47.6°N, 97.89°W
Report Text: KRDR 202158Z AUTO 18009KT 3SM BR OVC003 M02/M02 A2993 RMK AO2 SLP153 T10221022
Loading
Personal Weather Stations






























Interactive Weather Map New forecast layout! Learn more

10-Day Weather Forecast

Advertisements
Track Severe Weather on mobile